Time;durP1;ratioP1;P1;durP2;ratioP2;P2;SDS_P1;SDS_P2;PMS_P1;PMS_P2;Temp;Humidity;BMP_temperature;BMP_pressure;BME280_temperature;BME280_humidity;BME280_pressure;Samples;Min_cycle;Max_cycle;Signal;HPM_P1;HPM_P2
2022/02/13 00:00:58;;;;;;;14.50;5.97;;;0.70;54.50;;;;;;5133367;27;20318;-70
2022/02/13 00:03:24;;;;;;;16.30;6.90;;;0.60;54.60;;;;;;5118825;27;20284;-70
2022/02/13 00:05:51;;;;;;;12.10;4.93;;;0.60;54.70;;;;;;5111470;28;20302;-70
2022/02/13 00:08:17;;;;;;;11.87;6.50;;;0.60;54.60;;;;;;5113180;28;20725;-70
2022/02/13 00:10:43;;;;;;;14.70;6.00;;;0.60;54.50;;;;;;5112412;28;20261;-71
2022/02/13 00:13:09;;;;;;;13.13;6.77;;;0.50;54.60;;;;;;5112561;28;20741;-70
2022/02/13 00:15:35;;;;;;;14.80;6.57;;;0.60;54.80;;;;;;5116387;28;20026;-70
2022/02/13 00:18:01;;;;;;;12.93;5.93;;;0.60;54.70;;;;;;5133679;27;20253;-70
2022/02/13 00:20:27;;;;;;;23.53;7.60;;;0.50;54.60;;;;;;5153526;27;20038;-70
2022/02/13 00:22:52;;;;;;;16.20;6.90;;;0.50;54.60;;;;;;5130481;27;20038;-70
2022/02/13 00:25:19;;;;;;;13.57;7.33;;;0.50;54.60;;;;;;5142628;27;20032;-70
2022/02/13 00:27:45;;;;;;;10.20;5.77;;;0.40;54.60;;;;;;5128117;27;20476;-70
2022/02/13 00:30:13;;;;;;;15.40;4.97;;;0.40;54.80;;;;;;5136648;27;20271;-70
2022/02/13 00:32:40;;;;;;;9.83;4.20;;;0.40;54.70;;;;;;5129625;27;20269;-70
2022/02/13 00:35:07;;;;;;;9.67;4.50;;;0.30;54.70;;;;;;5147532;27;20329;-70
2022/02/13 00:37:32;;;;;;;8.70;3.23;;;0.30;54.80;;;;;;5136148;27;20271;-70
2022/02/13 00:39:58;;;;;;;7.43;3.43;;;0.30;54.90;;;;;;5136937;27;20276;-70
2022/02/13 00:42:24;;;;;;;7.13;2.77;;;0.30;54.90;;;;;;5133864;27;20080;-70
2022/02/13 00:44:49;;;;;;;5.40;3.53;;;0.20;54.90;;;;;;5122186;27;20379;-70
2022/02/13 00:47:15;;;;;;;9.60;3.60;;;0.20;55.00;;;;;;5116624;28;20040;-70
2022/02/13 00:49:41;;;;;;;9.13;4.10;;;0.30;55.10;;;;;;5116255;28;20023;-70
2022/02/13 00:52:07;;;;;;;13.97;4.63;;;0.30;55.00;;;;;;5131259;27;20421;-71
2022/02/13 00:54:33;;;;;;;11.63;4.13;;;0.30;55.20;;;;;;5134418;27;20042;-70
2022/02/13 00:57:02;;;;;;;10.77;4.50;;;0.30;55.00;;;;;;5136612;27;20019;-70
2022/02/13 00:59:28;;;;;;;7.97;4.07;;;0.30;54.80;;;;;;5125583;27;20277;-70
2022/02/13 01:01:54;;;;;;;10.00;3.47;;;0.30;54.80;;;;;;5136890;27;20264;-70
2022/02/13 01:04:20;;;;;;;9.37;3.90;;;0.30;54.60;;;;;;5152505;27;20023;-70
2022/02/13 01:06:46;;;;;;;10.23;4.27;;;0.20;54.60;;;;;;5152496;27;20284;-70
2022/02/13 01:09:12;;;;;;;10.17;3.93;;;0.10;54.80;;;;;;5151322;27;20261;-70
2022/02/13 01:11:38;;;;;;;11.80;4.50;;;0.10;54.90;;;;;;5136341;27;20156;-70
2022/02/13 01:14:04;;;;;;;9.20;3.73;;;0.10;54.90;;;;;;5115542;28;20138;-70
2022/02/13 01:16:31;;;;;;;9.10;3.40;;;0.10;55.00;;;;;;5144564;27;20404;-70
2022/02/13 01:18:57;;;;;;;9.37;4.33;;;0.10;54.90;;;;;;5136160;27;20288;-70
2022/02/13 01:21:23;;;;;;;10.87;4.43;;;0.00;54.80;;;;;;5117150;27;20265;-70
2022/02/13 01:23:48;;;;;;;9.27;3.80;;;0.00;55.10;;;;;;5115756;28;20102;-71
2022/02/13 01:26:15;;;;;;;10.10;4.67;;;0.00;55.20;;;;;;5115290;28;20457;-70
2022/02/13 01:28:41;;;;;;;11.03;5.03;;;0.00;55.10;;;;;;5115640;28;20110;-70
2022/02/13 01:31:08;;;;;;;9.23;5.10;;;0.00;55.10;;;;;;5115582;28;20598;-70
2022/02/13 01:33:35;;;;;;;11.37;5.00;;;0.00;55.20;;;;;;5126213;27;20356;-70
2022/02/13 01:36:01;;;;;;;9.33;3.87;;;0.00;55.10;;;;;;5135049;27;20343;-70
2022/02/13 01:38:28;;;;;;;9.00;3.93;;;0.00;55.20;;;;;;5150653;27;20285;-70
2022/02/13 01:40:54;;;;;;;6.03;3.40;;;0.00;55.10;;;;;;5150542;27;20285;-69
2022/02/13 01:43:20;;;;;;;8.27;3.07;;;0.00;55.00;;;;;;5150911;27;20816;-70
2022/02/13 01:45:46;;;;;;;8.87;2.93;;;-0.10;55.00;;;;;;5150487;27;20876;-70
2022/02/13 01:48:12;;;;;;;8.50;3.00;;;0.00;55.20;;;;;;5134629;27;20249;-70
2022/02/13 01:50:40;;;;;;;8.97;3.90;;;-0.10;55.20;;;;;;5132851;27;20072;-71
2022/02/13 01:53:07;;;;;;;7.40;2.80;;;-0.10;55.40;;;;;;5134791;27;20527;-70
2022/02/13 01:55:33;;;;;;;9.83;5.10;;;0.00;55.40;;;;;;5134365;27;20257;-70
2022/02/13 01:57:58;;;;;;;14.43;5.37;;;0.00;55.20;;;;;;5150132;27;20756;-70
2022/02/13 02:00:25;;;;;;;7.50;3.53;;;0.00;55.60;;;;;;5132933;27;20291;-71
2022/02/13 02:02:52;;;;;;;10.97;4.03;;;-0.10;55.00;;;;;;5132844;27;20410;-70
2022/02/13 02:05:18;;;;;;;11.70;4.87;;;-0.10;54.80;;;;;;5134823;27;20263;-70
2022/02/13 02:07:43;;;;;;;8.63;4.33;;;-0.10;55.10;;;;;;5118383;27;20257;-70
2022/02/13 02:10:10;;;;;;;12.97;5.10;;;-0.20;55.10;;;;;;5113438;28;20268;-70
2022/02/13 02:12:36;;;;;;;12.53;4.40;;;-0.20;55.30;;;;;;5113984;27;20032;-70
2022/02/13 02:15:03;;;;;;;6.07;3.07;;;-0.20;55.30;;;;;;5113490;28;20265;-70
2022/02/13 02:17:29;;;;;;;7.07;3.13;;;-0.30;55.50;;;;;;5113325;27;20326;-70
2022/02/13 02:19:54;;;;;;;12.63;4.60;;;-0.30;55.60;;;;;;5113660;28;20672;-70
2022/02/13 02:22:20;;;;;;;9.30;5.47;;;-0.30;55.60;;;;;;5119668;27;20023;-70
2022/02/13 02:24:46;;;;;;;10.17;4.23;;;-0.30;55.50;;;;;;5133312;27;20130;-70
2022/02/13 02:27:13;;;;;;;11.70;5.23;;;-0.40;55.60;;;;;;5150129;27;20030;-70
2022/02/13 02:29:39;;;;;;;9.73;4.33;;;-0.40;55.70;;;;;;5149513;27;20115;-70
2022/02/13 02:32:05;;;;;;;9.13;4.80;;;-0.40;55.90;;;;;;5150003;27;20625;-70
2022/02/13 02:34:31;;;;;;;11.50;5.57;;;-0.40;56.00;;;;;;5149750;27;20769;-70
2022/02/13 02:36:57;;;;;;;8.67;4.40;;;-0.40;56.20;;;;;;5133372;27;20341;-70
2022/02/13 02:39:23;;;;;;;7.97;3.77;;;-0.40;56.30;;;;;;5133907;27;20020;-70
2022/02/13 02:41:49;;;;;;;18.67;4.60;;;-0.40;56.30;;;;;;5148312;27;20475;-71
2022/02/13 02:44:15;;;;;;;11.13;4.07;;;-0.40;56.40;;;;;;5133778;27;20023;-70
2022/02/13 02:46:40;;;;;;;9.30;4.57;;;-0.40;56.40;;;;;;5133710;27;20285;-71
2022/02/13 02:49:06;;;;;;;11.47;5.53;;;-0.40;56.20;;;;;;5133484;27;20034;-70
2022/02/13 02:51:32;;;;;;;14.63;6.40;;;-0.40;56.20;;;;;;5149141;27;20269;-70
2022/02/13 02:53:58;;;;;;;12.90;4.90;;;-0.40;56.10;;;;;;5133781;27;20038;-70
2022/02/13 02:56:23;;;;;;;8.77;4.50;;;-0.40;56.10;;;;;;5149294;27;20394;-70
2022/02/13 02:58:49;;;;;;;11.43;4.80;;;-0.40;56.00;;;;;;5132172;27;20505;-70
2022/02/13 03:01:14;;;;;;;12.43;5.17;;;-0.40;56.10;;;;;;5149170;27;20042;-70
2022/02/13 03:03:40;;;;;;;8.70;5.07;;;-0.30;56.10;;;;;;5132941;27;20099;-70
2022/02/13 03:06:06;;;;;;;8.70;5.07;;;-0.40;56.10;;;;;;5133014;27;20037;-70
2022/02/13 03:08:32;;;;;;;11.47;5.67;;;-0.40;56.30;;;;;;5133300;27;20102;-70
2022/02/13 03:10:58;;;;;;;12.63;5.60;;;-0.40;56.20;;;;;;5133164;27;20088;-70
2022/02/13 03:13:24;;;;;;;21.73;6.27;;;-0.40;56.20;;;;;;5132870;27;20031;-70
2022/02/13 03:15:50;;;;;;;21.80;6.47;;;-0.50;56.30;;;;;;5117928;27;20115;-70
2022/02/13 03:18:17;;;;;;;14.90;5.03;;;-0.50;56.30;;;;;;5112438;28;20629;-70
2022/02/13 03:20:46;;;;;;;20.17;5.63;;;-0.50;56.20;;;;;;5112584;28;20261;-70
2022/02/13 03:23:13;;;;;;;10.90;4.40;;;-0.50;56.20;;;;;;5113777;27;20268;-70
2022/02/13 03:25:39;;;;;;;11.00;3.80;;;-0.50;56.20;;;;;;5132465;27;20264;-71
2022/02/13 03:28:05;;;;;;;4.53;2.00;;;-0.50;56.30;;;;;;5132942;27;20256;-70
2022/02/13 03:30:31;;;;;;;7.67;2.23;;;-0.50;56.20;;;;;;5149075;27;20634;-70
2022/02/13 03:32:57;;;;;;;5.20;2.27;;;-0.60;56.10;;;;;;5131535;27;20782;-70
2022/02/13 03:35:23;;;;;;;4.40;2.43;;;-0.60;56.20;;;;;;5132957;27;20453;-71
2022/02/13 03:37:50;;;;;;;5.33;2.23;;;-0.70;56.10;;;;;;5132613;27;20019;-70
2022/02/13 03:40:16;;;;;;;4.80;2.47;;;-0.70;56.20;;;;;;5148197;27;20295;-70
2022/02/13 03:42:42;;;;;;;5.87;2.60;;;-0.60;56.20;;;;;;5148793;27;20287;-70
2022/02/13 03:45:08;;;;;;;5.93;2.80;;;-0.60;56.10;;;;;;5132620;27;20256;-70
2022/02/13 03:47:34;;;;;;;6.30;2.63;;;-0.60;56.00;;;;;;5132182;27;20453;-70
2022/02/13 03:50:00;;;;;;;6.00;2.20;;;-0.60;56.00;;;;;;5131895;27;20267;-70
2022/02/13 03:52:27;;;;;;;5.73;3.00;;;-0.60;56.00;;;;;;5131737;27;20045;-70
2022/02/13 03:54:52;;;;;;;5.10;2.77;;;-0.60;55.90;;;;;;5132106;27;20038;-70
2022/02/13 03:57:18;;;;;;;6.07;2.50;;;-0.60;55.80;;;;;;5148474;27;20807;-70
2022/02/13 03:59:44;;;;;;;4.43;2.40;;;-0.60;55.80;;;;;;5148180;27;20031;-70
2022/02/13 04:02:09;;;;;;;3.23;1.60;;;-0.70;55.80;;;;;;5132117;27;20031;-70
2022/02/13 04:04:35;;;;;;;6.53;1.40;;;-0.70;55.80;;;;;;5148426;27;20479;-70
2022/02/13 04:07:01;;;;;;;2.40;1.60;;;-0.60;55.80;;;;;;5147136;27;20110;-70
2022/02/13 04:09:26;;;;;;;5.60;1.63;;;-0.60;55.90;;;;;;5131917;27;20467;-70
2022/02/13 04:11:52;;;;;;;3.40;1.70;;;-0.60;56.00;;;;;;5132498;27;20038;-70
2022/02/13 04:14:18;;;;;;;9.87;1.60;;;-0.60;56.00;;;;;;5132194;27;20515;-70
2022/02/13 04:16:43;;;;;;;4.23;1.93;;;-0.60;56.20;;;;;;5131955;27;20038;-70
2022/02/13 04:19:09;;;;;;;4.63;1.80;;;-0.50;56.20;;;;;;5132379;27;20023;-70
2022/02/13 04:21:35;;;;;;;5.30;2.40;;;-0.60;56.10;;;;;;5132122;27;20118;-70
2022/02/13 04:24:00;;;;;;;4.13;1.67;;;-0.40;56.40;;;;;;5114634;27;20031;-70
2022/02/13 04:26:26;;;;;;;5.50;1.53;;;-0.30;56.40;;;;;;5118316;28;20456;-71
2022/02/13 04:28:52;;;;;;;3.10;1.40;;;-0.30;56.20;;;;;;5131981;28;20052;-72
2022/02/13 04:31:17;;;;;;;5.30;1.30;;;-0.30;55.80;;;;;;5148078;27;20031;-70
2022/02/13 04:33:43;;;;;;;2.33;1.10;;;-0.30;56.00;;;;;;5132288;28;20361;-70
2022/02/13 04:36:09;;;;;;;8.63;3.43;;;-0.20;55.90;;;;;;5131447;28;20023;-71
2022/02/13 04:38:35;;;;;;;5.50;2.30;;;-0.20;55.50;;;;;;5148089;27;20027;-70
2022/02/13 04:41:01;;;;;;;2.93;0.90;;;-0.20;55.20;;;;;;5147093;27;20031;-70
2022/02/13 04:43:27;;;;;;;2.17;1.10;;;-0.20;55.20;;;;;;5147960;27;20351;-70
2022/02/13 04:45:53;;;;;;;4.23;1.60;;;-0.20;55.50;;;;;;5147906;27;20130;-71
2022/02/13 04:48:19;;;;;;;5.70;1.93;;;-0.10;55.10;;;;;;5131918;27;20261;-70
2022/02/13 04:50:45;;;;;;;7.90;1.80;;;-0.10;54.80;;;;;;5131768;27;20667;-71
2022/02/13 04:53:11;;;;;;;2.97;1.50;;;-0.10;55.20;;;;;;5147872;27;20260;-70
2022/02/13 04:55:36;;;;;;;8.20;2.27;;;0.00;54.80;;;;;;5131858;27;20046;-70
2022/02/13 04:58:05;;;;;;;4.67;1.30;;;0.00;54.60;;;;;;5146532;27;20023;-71
2022/02/13 05:00:31;;;;;;;2.10;1.17;;;0.10;54.70;;;;;;5131998;27;20100;-70
2022/02/13 05:02:57;;;;;;;3.87;1.30;;;0.10;54.50;;;;;;5131822;27;20276;-70
2022/02/13 05:05:22;;;;;;;3.30;1.33;;;0.10;54.30;;;;;;5134438;27;20426;-70
2022/02/13 05:07:48;;;;;;;2.83;1.40;;;0.10;54.40;;;;;;5135779;27;20049;-70
2022/02/13 05:10:14;;;;;;;4.30;1.40;;;0.20;54.40;;;;;;5135655;27;20028;-70
2022/02/13 05:12:40;;;;;;;2.93;1.47;;;0.20;54.20;;;;;;5135075;27;20027;-70
2022/02/13 05:15:07;;;;;;;4.73;2.07;;;0.10;53.90;;;;;;5125649;27;20027;-70
2022/02/13 05:17:34;;;;;;;6.37;2.50;;;0.00;54.10;;;;;;5133610;27;20026;-70
2022/02/13 05:20:00;;;;;;;4.73;1.53;;;0.00;54.10;;;;;;5133813;27;20361;-70
2022/02/13 05:22:26;;;;;;;4.93;1.80;;;0.00;54.40;;;;;;5135476;27;20265;-70
2022/02/13 05:24:51;;;;;;;6.73;2.90;;;0.00;54.30;;;;;;5133954;27;20030;-70
2022/02/13 05:27:17;;;;;;;3.47;2.00;;;-0.20;54.10;;;;;;5135020;27;20034;-70
2022/02/13 05:29:43;;;;;;;2.90;1.80;;;-0.20;54.20;;;;;;5133957;27;20095;-71
2022/02/13 05:32:09;;;;;;;2.23;1.07;;;-0.20;54.10;;;;;;5134152;27;20432;-72
2022/02/13 05:34:35;;;;;;;6.73;1.50;;;-0.20;54.20;;;;;;5135171;27;20432;-70
2022/02/13 05:37:01;;;;;;;3.77;1.60;;;-0.20;54.30;;;;;;5134929;27;20035;-71
2022/02/13 05:39:27;;;;;;;5.57;3.00;;;-0.20;54.00;;;;;;5150673;27;20843;-70
2022/02/13 05:41:53;;;;;;;4.43;2.30;;;-0.20;53.90;;;;;;5135188;27;20268;-70
2022/02/13 05:44:18;;;;;;;4.23;1.70;;;-0.10;53.90;;;;;;5135594;27;20041;-70
2022/02/13 05:46:44;;;;;;;4.30;2.20;;;-0.10;54.00;;;;;;5134642;27;20051;-70
2022/02/13 05:49:10;;;;;;;4.17;2.10;;;0.00;54.20;;;;;;5134489;27;20035;-70
2022/02/13 05:51:36;;;;;;;17.53;3.87;;;0.00;53.80;;;;;;5150560;27;20539;-70
2022/02/13 05:54:04;;;;;;;9.13;3.00;;;0.00;53.50;;;;;;5150523;27;20476;-70
2022/02/13 05:56:30;;;;;;;6.17;3.33;;;-0.10;53.50;;;;;;5128442;27;20277;-71
2022/02/13 05:58:56;;;;;;;19.93;6.20;;;-0.10;53.50;;;;;;5112742;28;20292;-71
2022/02/13 06:01:22;;;;;;;8.77;2.77;;;-0.20;53.30;;;;;;5113876;28;20266;-70
2022/02/13 06:03:48;;;;;;;4.97;2.43;;;-0.30;53.50;;;;;;5114309;28;20600;-70
2022/02/13 06:06:13;;;;;;;7.30;2.60;;;-0.40;53.60;;;;;;5114480;27;20353;-70
2022/02/13 06:08:40;;;;;;;5.27;2.40;;;-0.40;53.50;;;;;;5113633;28;20032;-70
2022/02/13 06:11:06;;;;;;;10.57;2.90;;;-0.40;53.50;;;;;;5114127;28;20024;-70
2022/02/13 06:13:32;;;;;;;9.70;4.60;;;-0.50;53.40;;;;;;5112491;28;20289;-71
2022/02/13 06:16:01;;;;;;;15.70;7.40;;;-0.50;53.70;;;;;;5111267;28;20354;-70
2022/02/13 06:18:27;;;;;;;12.43;5.97;;;-0.40;53.70;;;;;;5124390;27;20382;-70
2022/02/13 06:20:53;;;;;;;22.57;10.20;;;-0.50;53.70;;;;;;5134286;27;20261;-71
2022/02/13 06:23:18;;;;;;;26.00;10.73;;;-0.50;53.90;;;;;;5112936;27;20258;-70
2022/02/13 06:25:44;;;;;;;20.17;9.50;;;-0.50;53.90;;;;;;5129601;27;20047;-71
2022/02/13 06:28:10;;;;;;;22.53;11.60;;;-0.40;53.80;;;;;;5129207;27;20025;-71
2022/02/13 06:30:36;;;;;;;16.97;7.97;;;-0.50;53.50;;;;;;5111885;28;20035;-71
2022/02/13 06:33:03;;;;;;;12.30;5.47;;;-0.50;53.40;;;;;;5112233;28;20472;-70
2022/02/13 06:35:30;;;;;;;8.63;5.00;;;-0.60;53.50;;;;;;5113269;27;20020;-70
2022/02/13 06:37:56;;;;;;;17.27;8.20;;;-0.60;53.70;;;;;;5112053;28;20344;-70
2022/02/13 06:40:22;;;;;;;20.53;8.80;;;-0.60;53.80;;;;;;5133103;27;20271;-71
2022/02/13 06:42:48;;;;;;;22.17;10.67;;;-0.60;53.90;;;;;;5133402;27;20260;-70
2022/02/13 06:45:14;;;;;;;18.70;10.03;;;-0.60;53.80;;;;;;5133892;27;20019;-70
2022/02/13 06:47:41;;;;;;;15.47;8.83;;;-0.60;53.70;;;;;;5132084;27;20050;-70
2022/02/13 06:50:07;;;;;;;13.43;6.83;;;-0.60;53.80;;;;;;5149332;27;20280;-70
2022/02/13 06:52:33;;;;;;;8.80;4.93;;;-0.60;53.70;;;;;;5133758;27;20774;-71
2022/02/13 06:54:59;;;;;;;6.40;3.90;;;-0.60;53.70;;;;;;5148928;27;20264;-70
2022/02/13 06:57:25;;;;;;;9.93;4.40;;;-0.60;53.60;;;;;;5132811;27;20033;-70
2022/02/13 06:59:50;;;;;;;8.17;4.40;;;-0.60;53.70;;;;;;5133350;27;20019;-71
2022/02/13 07:02:16;;;;;;;15.50;7.73;;;-0.60;53.70;;;;;;5133413;27;20039;-70
2022/02/13 07:04:42;;;;;;;16.53;8.10;;;-0.60;53.60;;;;;;5133052;27;20600;-71
2022/02/13 07:07:11;;;;;;;16.80;8.53;;;-0.70;53.60;;;;;;5133503;27;20054;-71
2022/02/13 07:09:37;;;;;;;19.83;11.43;;;-0.60;53.60;;;;;;5149193;27;20023;-70
2022/02/13 07:12:09;;;;;;;20.87;11.53;;;-0.70;53.80;;;;;;5132080;27;20467;-70
2022/02/13 07:14:38;;;;;;;14.55;8.30;;;-0.70;53.90;;;;;;5112868;28;20280;-70
2022/02/13 07:17:05;;;;;;;20.23;9.90;;;-0.70;53.80;;;;;;5112553;28;20360;-70
2022/02/13 07:19:31;;;;;;;15.30;8.93;;;-0.70;53.80;;;;;;5110926;28;20284;-70
2022/02/13 07:21:57;;;;;;;19.03;10.97;;;-0.60;53.90;;;;;;5112683;28;20260;-71
2022/02/13 07:24:22;;;;;;;24.60;15.77;;;-0.60;53.90;;;;;;5123396;27;20261;-70
2022/02/13 07:26:48;;;;;;;20.73;12.40;;;-0.60;54.00;;;;;;5132536;27;20023;-70
2022/02/13 07:29:14;;;;;;;19.13;10.27;;;-0.60;54.50;;;;;;5121720;27;20027;-70
2022/02/13 07:31:40;;;;;;;18.23;10.27;;;-0.60;53.90;;;;;;5133018;27;20106;-70
2022/02/13 07:34:06;;;;;;;18.40;10.03;;;-0.60;53.80;;;;;;5132566;27;20023;-70
2022/02/13 07:36:33;;;;;;;17.20;9.97;;;-0.70;54.00;;;;;;5132718;27;20023;-70
2022/02/13 07:38:59;;;;;;;21.67;11.37;;;-0.60;54.20;;;;;;5132436;27;20284;-70
2022/02/13 07:41:28;;;;;;;25.63;12.93;;;-0.60;54.40;;;;;;5132933;27;20736;-70
2022/02/13 07:43:56;;;;;;;23.67;12.80;;;-0.60;54.30;;;;;;5132644;27;20027;-70
2022/02/13 07:46:22;;;;;;;26.90;10.80;;;-0.60;54.30;;;;;;5130203;27;20361;-70
2022/02/13 07:48:48;;;;;;;21.90;10.53;;;-0.60;54.80;;;;;;5132786;27;20337;-70
2022/02/13 07:51:14;;;;;;;15.17;6.83;;;-0.60;54.20;;;;;;5131238;27;20038;-70
2022/02/13 07:53:41;;;;;;;25.20;14.57;;;-0.60;54.30;;;;;;5132252;27;20253;-70
2022/02/13 07:56:08;;;;;;;8.77;5.27;;;-0.60;54.30;;;;;;5132695;27;20264;-70
2022/02/13 07:58:35;;;;;;;11.97;5.80;;;-0.60;54.30;;;;;;5132072;27;20272;-70
2022/02/13 08:01:02;;;;;;;15.93;6.30;;;-0.50;54.20;;;;;;5121806;27;20383;-70
2022/02/13 08:03:28;;;;;;;21.70;10.77;;;-0.50;54.00;;;;;;5127339;27;20265;-70
2022/02/13 08:05:54;;;;;;;20.97;9.53;;;-0.50;53.80;;;;;;5127112;27;20276;-71
2022/02/13 08:08:20;;;;;;;22.27;11.67;;;-0.50;53.80;;;;;;5133286;27;20098;-70
2022/02/13 08:10:46;;;;;;;29.73;15.27;;;-0.50;54.00;;;;;;5129841;27;20281;-70
2022/02/13 08:13:13;;;;;;;25.30;14.87;;;-0.40;54.10;;;;;;5133253;27;20309;-70
2022/02/13 08:15:39;;;;;;;38.97;18.20;;;-0.40;54.10;;;;;;5133144;27;20713;-71
2022/02/13 08:18:10;;;;;;;33.13;17.73;;;-0.40;54.20;;;;;;5133253;27;21001;-71
2022/02/13 08:20:36;;;;;;;15.27;7.83;;;-0.30;54.20;;;;;;5125447;28;21114;-71
2022/02/13 08:23:02;;;;;;;22.40;9.83;;;-0.30;54.20;;;;;;5127518;28;20352;-70
2022/02/13 08:25:28;;;;;;;20.40;9.80;;;-0.20;54.20;;;;;;5115229;27;20261;-71
2022/02/13 08:27:54;;;;;;;18.83;8.90;;;-0.20;54.40;;;;;;5112725;28;20261;-70
2022/02/13 08:30:21;;;;;;;21.93;8.70;;;-0.10;54.50;;;;;;5122042;28;20259;-70
2022/02/13 08:32:47;;;;;;;15.83;9.10;;;0.00;54.40;;;;;;5130743;27;20031;-71
2022/02/13 08:35:13;;;;;;;15.27;6.20;;;0.00;54.20;;;;;;5132725;27;20268;-70
2022/02/13 08:37:38;;;;;;;13.50;8.83;;;0.00;54.10;;;;;;5127298;27;20114;-70
2022/02/13 08:40:05;;;;;;;11.17;6.33;;;0.10;54.00;;;;;;5130307;27;20161;-70
2022/02/13 08:42:31;;;;;;;13.60;5.80;;;0.10;53.90;;;;;;5114690;28;20085;-71
2022/02/13 08:44:57;;;;;;;20.60;9.40;;;0.60;53.50;;;;;;5121132;27;20269;-71
2022/02/13 08:47:22;;;;;;;12.43;6.40;;;2.70;50.80;;;;;;5116370;28;20216;-72
2022/02/13 08:49:49;;;;;;;13.20;6.10;;;6.30;45.70;;;;;;5114902;28;20024;-71
2022/02/13 08:52:17;;;;;;;11.43;5.88;;;10.40;40.20;;;;;;5116586;28;20498;-73
2022/02/13 08:54:43;;;;;;;8.52;4.90;;;12.40;38.00;;;;;;5116909;27;20054;-72
2022/02/13 08:57:09;;;;;;;4.70;3.30;;;12.50;39.00;;;;;;5116316;27;20464;-72
2022/02/13 08:59:34;;;;;;;6.40;3.53;;;12.30;39.70;;;;;;5125698;27;20037;-72
2022/02/13 09:02:01;;;;;;;5.90;3.78;;;12.00;40.30;;;;;;5136760;27;20099;-71
2022/02/13 09:04:26;;;;;;;6.68;4.60;;;11.50;40.40;;;;;;5136498;27;20050;-71
2022/02/13 09:06:52;;;;;;;7.50;4.22;;;10.90;40.80;;;;;;5152920;27;20452;-72
2022/02/13 09:09:18;;;;;;;6.55;5.10;;;10.20;41.00;;;;;;5134413;27;20352;-71
2022/02/13 09:11:44;;;;;;;8.68;5.47;;;9.60;41.40;;;;;;5121075;27;20031;-71
2022/02/13 09:14:10;;;;;;;8.10;5.53;;;9.10;41.10;;;;;;5136561;27;20078;-71
2022/02/13 09:16:36;;;;;;;6.40;4.40;;;8.70;40.80;;;;;;5136620;27;20080;-71
2022/02/13 09:19:02;;;;;;;10.40;4.30;;;8.20;39.90;;;;;;5152372;27;20030;-72
2022/02/13 09:21:28;;;;;;;5.87;3.57;;;7.70;39.40;;;;;;5152603;27;20034;-71
2022/02/13 09:23:54;;;;;;;6.40;2.97;;;7.20;39.30;;;;;;5151778;27;20036;-72
2022/02/13 09:26:20;;;;;;;4.07;2.83;;;7.00;38.70;;;;;;5119480;27;20027;-71
2022/02/13 09:28:46;;;;;;;6.00;2.67;;;6.70;38.40;;;;;;5133226;27;20034;-71
2022/02/13 09:31:12;;;;;;;4.27;2.40;;;6.50;38.40;;;;;;5152422;27;20023;-71
2022/02/13 09:33:37;;;;;;;12.43;3.43;;;6.50;38.20;;;;;;5136137;27;20086;-71
2022/02/13 09:36:03;;;;;;;7.50;2.83;;;6.40;38.00;;;;;;5135763;27;20031;-71
2022/02/13 09:38:29;;;;;;;5.93;2.87;;;6.40;37.90;;;;;;5133598;27;20023;-72
2022/02/13 09:40:55;;;;;;;4.93;2.40;;;6.60;38.00;;;;;;5152202;27;20027;-71
2022/02/13 09:43:21;;;;;;;9.45;3.05;;;6.70;38.30;;;;;;5149617;27;20023;-71
2022/02/13 09:45:51;;;;;;;4.85;3.13;;;7.00;38.70;;;;;;5127014;27;20039;-71
2022/02/13 09:48:21;;;;;;;7.10;2.90;;;7.30;38.50;;;;;;5114179;28;20023;-71
2022/02/13 09:50:48;;;;;;;5.80;2.75;;;7.50;38.00;;;;;;5113998;27;20081;-71
2022/02/13 09:53:16;;;;;;;7.50;2.90;;;7.80;37.90;;;;;;5114869;27;20031;-72
2022/02/13 09:55:42;;;;;;;8.13;2.30;;;8.00;37.30;;;;;;5114115;28;20031;-71
2022/02/13 09:58:08;;;;;;;5.67;1.90;;;7.90;36.80;;;;;;5129022;27;20032;-72
2022/02/13 10:01:04;;;;;;;4.87;2.47;;;7.90;36.50;;;;;;5135435;27;20027;-71
2022/02/13 10:03:34;;;;;;;8.23;2.40;;;7.80;35.90;;;;;;5123000;27;20051;-71
2022/02/13 10:06:19;;;;;;;2.50;1.77;;;7.80;36.30;;;;;;5113833;28;20028;-71
2022/02/13 10:08:55;;;;;;;6.20;2.37;;;7.90;36.00;;;;;;5114772;28;20471;-71
2022/02/13 10:11:24;;;;;;;4.87;1.83;;;8.10;35.60;;;;;;5122902;27;20031;-71
2022/02/13 10:14:17;;;;;;;3.77;2.23;;;8.30;35.20;;;;;;5135255;27;20023;-71
2022/02/13 10:16:45;;;;;;;5.00;1.80;;;8.70;34.10;;;;;;5131062;27;20403;-71
2022/02/13 10:19:16;;;;;;;7.70;1.97;;;8.40;33.80;;;;;;5150851;27;20054;-71
2022/02/13 10:21:47;;;;;;;4.80;2.10;;;8.40;33.50;;;;;;5135159;27;20019;-71
2022/02/13 10:24:15;;;;;;;4.93;2.27;;;8.60;33.50;;;;;;5134983;27;20047;-72
2022/02/13 10:26:42;;;;;;;8.80;2.33;;;8.70;33.40;;;;;;5136199;27;20026;-71
2022/02/13 10:29:09;;;;;;;8.43;2.93;;;8.80;32.90;;;;;;5133229;27;20023;-72
2022/02/13 10:31:35;;;;;;;4.73;2.00;;;8.90;32.80;;;;;;5151309;27;20051;-71
2022/02/13 10:34:01;;;;;;;4.80;2.40;;;9.00;32.90;;;;;;5134680;27;20027;-72
2022/02/13 10:36:28;;;;;;;2.63;1.70;;;9.10;32.90;;;;;;5130787;27;20026;-72
2022/02/13 10:38:54;;;;;;;7.60;2.63;;;9.20;32.90;;;;;;5118508;27;20031;-72
2022/02/13 10:41:26;;;;;;;4.67;2.63;;;9.20;32.50;;;;;;5134314;27;20015;-72
2022/02/13 10:44:05;;;;;;;3.87;2.13;;;9.30;32.50;;;;;;5132336;27;20011;-71
2022/02/13 10:46:40;;;;;;;8.83;2.43;;;9.30;32.30;;;;;;5134602;27;20129;-72
2022/02/13 10:49:07;;;;;;;5.77;2.60;;;9.50;32.60;;;;;;5150537;27;20030;-72
2022/02/13 10:51:33;;;;;;;6.13;2.07;;;9.60;32.40;;;;;;5150780;27;20031;-72
2022/02/13 10:54:02;;;;;;;5.50;1.80;;;9.60;32.00;;;;;;5127566;27;20067;-72
2022/02/13 10:56:28;;;;;;;5.90;2.00;;;9.80;31.60;;;;;;5135087;27;20062;-72
2022/02/13 10:58:59;;;;;;;6.17;2.10;;;9.60;31.40;;;;;;5126270;27;20042;-72
2022/02/13 11:01:26;;;;;;;4.27;1.70;;;9.70;31.30;;;;;;5119321;27;20510;-72
2022/02/13 11:03:57;;;;;;;5.80;1.87;;;9.70;31.00;;;;;;5113621;28;20476;-73
2022/02/13 11:06:28;;;;;;;5.90;2.10;;;9.70;30.50;;;;;;5112567;28;20092;-72
2022/02/13 11:08:56;;;;;;;4.87;1.80;;;9.60;30.30;;;;;;5113536;28;20515;-72
2022/02/13 11:11:22;;;;;;;9.53;2.23;;;9.50;30.10;;;;;;5113985;27;20023;-72
2022/02/13 11:13:49;;;;;;;8.83;2.40;;;9.40;30.40;;;;;;5114398;27;20015;-72
2022/02/13 11:16:33;;;;;;;4.37;1.70;;;9.50;30.10;;;;;;5114355;27;20400;-73
2022/02/13 11:19:06;;;;;;;8.73;2.10;;;9.60;30.00;;;;;;5112030;28;20367;-72
2022/02/13 11:21:32;;;;;;;5.78;2.38;;;9.80;30.00;;;;;;5129446;27;20043;-72
2022/02/13 11:23:59;;;;;;;11.07;1.80;;;9.80;29.90;;;;;;5113337;28;20049;-72
2022/02/13 11:26:36;;;;;;;3.23;1.60;;;9.70;29.90;;;;;;5113653;28;20465;-72
2022/02/13 11:29:03;;;;;;;4.20;1.67;;;9.80;29.70;;;;;;5113466;28;20098;-72
2022/02/13 11:31:33;;;;;;;4.30;2.13;;;9.80;29.40;;;;;;5114024;27;20104;-72
2022/02/13 11:33:59;;;;;;;4.23;1.77;;;9.80;29.40;;;;;;5114330;28;20019;-72
2022/02/13 11:36:56;;;;;;;5.23;1.57;;;9.80;29.30;;;;;;5113263;28;20030;-72
2022/02/13 11:39:37;;;;;;;4.00;1.87;;;9.80;29.00;;;;;;5099108;28;20499;-72
2022/02/13 11:42:07;;;;;;;4.73;1.63;;;9.80;29.00;;;;;;5113147;28;20476;-72
2022/02/13 11:44:34;;;;;;;11.30;2.23;;;9.60;29.00;;;;;;5113985;28;20016;-72
2022/02/13 11:47:01;;;;;;;8.27;2.13;;;9.60;29.10;;;;;;5138951;27;20375;-73
2022/02/13 11:49:27;;;;;;;4.03;2.03;;;9.60;28.90;;;;;;5147397;27;20073;-72
2022/02/13 11:51:54;;;;;;;5.93;1.70;;;9.60;28.80;;;;;;5133674;27;20054;-72
2022/02/13 11:54:37;;;;;;;3.63;1.80;;;9.60;28.80;;;;;;5133445;27;20031;-72
2022/02/13 11:57:04;;;;;;;3.93;1.73;;;9.60;28.30;;;;;;5133422;27;20034;-72
2022/02/13 12:00:06;;;;;;;3.47;1.43;;;9.50;28.40;;;;;;5133408;27;20460;-72
2022/02/13 12:02:40;;;;;;;3.33;1.57;;;9.60;27.90;;;;;;5142141;27;20042;-72
2022/02/13 12:05:06;;;;;;;5.27;1.70;;;9.50;28.20;;;;;;5146634;27;20476;-72
2022/02/13 12:07:37;;;;;;;4.73;2.10;;;9.60;28.20;;;;;;5111406;28;20031;-72
2022/02/13 12:10:10;;;;;;;4.20;1.83;;;9.60;28.00;;;;;;5112700;28;20383;-73
2022/02/13 12:12:36;;;;;;;5.45;1.52;;;9.60;28.10;;;;;;5111691;28;20122;-72
2022/02/13 12:15:02;;;;;;;5.27;1.70;;;9.70;28.20;;;;;;5111705;28;20105;-71
2022/02/13 12:17:29;;;;;;;5.10;2.07;;;9.70;28.50;;;;;;5125803;28;20031;-72
2022/02/13 12:20:06;;;;;;;7.30;1.80;;;9.80;28.30;;;;;;5116934;27;20034;-72
2022/02/13 12:22:34;;;;;;;8.37;2.43;;;9.80;28.60;;;;;;5125480;28;20016;-72
2022/02/13 12:25:02;;;;;;;3.17;1.53;;;9.80;28.40;;;;;;5133225;27;20022;-72
2022/02/13 12:27:28;;;;;;;7.47;2.13;;;9.80;28.60;;;;;;5148805;27;20037;-71
2022/02/13 12:29:59;;;;;;;9.57;1.70;;;9.80;28.40;;;;;;5133349;28;20444;-72
2022/02/13 12:32:30;;;;;;;5.90;1.10;;;9.80;28.30;;;;;;5133283;27;20023;-71
2022/02/13 12:35:01;;;;;;;3.57;1.77;;;9.80;28.30;;;;;;5133119;27;20029;-72
2022/02/13 12:37:48;;;;;;;7.57;1.83;;;9.90;28.30;;;;;;5131349;28;20023;-71
2022/02/13 12:40:28;;;;;;;5.00;1.50;;;9.80;28.10;;;;;;5133184;27;20073;-72
2022/02/13 12:43:02;;;;;;;6.00;1.50;;;9.90;28.20;;;;;;5133157;28;20404;-72
2022/02/13 12:45:32;;;;;;;3.70;1.67;;;9.90;28.00;;;;;;5113272;27;20016;-72
2022/02/13 12:48:00;;;;;;;2.97;1.27;;;9.90;27.90;;;;;;5112636;28;20023;-72